sensor_id;sensor_type;location;lat;lon;timestamp;temperature;humidity
28297;DHT22;62078;49.366;8.172;2023-04-28T18:59:03;18.90;64.00
28297;DHT22;62078;49.366;8.172;2023-04-28T19:01:30;18.80;64.10
28297;DHT22;62078;49.366;8.172;2023-04-28T19:03:56;18.80;64.30
28297;DHT22;62078;49.366;8.172;2023-04-28T19:06:21;18.80;64.40
28297;DHT22;62078;49.366;8.172;2023-04-28T19:08:47;18.80;64.20
28297;DHT22;62078;49.366;8.172;2023-04-28T19:11:13;18.80;64.40
28297;DHT22;62078;49.366;8.172;2023-04-28T19:13:40;18.80;64.20
28297;DHT22;62078;49.366;8.172;2023-04-28T19:16:06;18.80;64.20
28297;DHT22;62078;49.366;8.172;2023-04-28T19:18:32;18.80;64.40
28297;DHT22;62078;49.366;8.172;2023-04-28T19:21:02;18.80;64.40
28297;DHT22;62078;49.366;8.172;2023-04-28T19:23:29;18.80;64.20
28297;DHT22;62078;49.366;8.172;2023-04-28T19:25:56;18.80;64.30
28297;DHT22;62078;49.366;8.172;2023-04-28T19:28:23;18.80;64.50
28297;DHT22;62078;49.366;8.172;2023-04-28T19:30:54;18.80;64.40
28297;DHT22;62078;49.366;8.172;2023-04-28T19:33:20;18.80;64.20
28297;DHT22;62078;49.366;8.172;2023-04-28T19:35:50;18.80;64.20
28297;DHT22;62078;49.366;8.172;2023-04-28T19:38:17;18.80;64.30
28297;DHT22;62078;49.366;8.172;2023-04-28T19:40:43;18.90;64.70
28297;DHT22;62078;49.366;8.172;2023-04-28T19:43:09;18.90;64.70
28297;DHT22;62078;49.366;8.172;2023-04-28T19:45:36;18.90;65.10
28297;DHT22;62078;49.366;8.172;2023-04-28T19:48:02;18.80;65.30
28297;DHT22;62078;49.366;8.172;2023-04-28T19:50:28;18.80;65.50
28297;DHT22;62078;49.366;8.172;2023-04-28T19:52:54;18.80;65.30
28297;DHT22;62078;49.366;8.172;2023-04-28T19:55:20;18.80;65.10
28297;DHT22;62078;49.366;8.172;2023-04-28T19:57:47;18.80;65.00
28297;DHT22;62078;49.366;8.172;2023-04-28T20:00:13;18.80;64.90
28297;DHT22;62078;49.366;8.172;2023-04-28T20:02:39;18.80;64.90
28297;DHT22;62078;49.366;8.172;2023-04-28T20:05:08;18.80;65.00
28297;DHT22;62078;49.366;8.172;2023-04-28T20:07:37;18.80;64.80
28297;DHT22;62078;49.366;8.172;2023-04-28T20:10:04;18.80;64.70
28297;DHT22;62078;49.366;8.172;2023-04-28T20:12:29;18.80;64.70
28297;DHT22;62078;49.366;8.172;2023-04-28T20:14:55;18.80;64.70
28297;DHT22;62078;49.366;8.172;2023-04-28T20:17:21;18.80;64.80
28297;DHT22;62078;49.366;8.172;2023-04-28T20:19:47;18.80;64.70
28297;DHT22;62078;49.366;8.172;2023-04-28T20:22:12;18.80;64.50
28297;DHT22;62078;49.366;8.172;2023-04-28T20:24:38;18.80;64.50
28297;DHT22;62078;49.366;8.172;2023-04-28T20:27:04;18.80;64.40
28297;DHT22;62078;49.366;8.172;2023-04-28T20:29:30;18.80;64.20
28297;DHT22;62078;49.366;8.172;2023-04-28T20:32:03;18.80;64.20
28297;DHT22;62078;49.366;8.172;2023-04-28T20:34:31;18.80;64.10
28297;DHT22;62078;49.366;8.172;2023-04-28T20:36:57;18.80;64.10
28297;DHT22;62078;49.366;8.172;2023-04-28T20:39:24;18.80;64.20
28297;DHT22;62078;49.366;8.172;2023-04-28T20:41:50;18.80;63.90
28297;DHT22;62078;49.366;8.172;2023-04-28T20:44:16;18.80;63.80
28297;DHT22;62078;49.366;8.172;2023-04-28T20:46:43;18.80;63.80
28297;DHT22;62078;49.366;8.172;2023-04-28T20:49:09;18.80;63.80
28297;DHT22;62078;49.366;8.172;2023-04-28T20:51:37;18.80;63.70
28297;DHT22;62078;49.366;8.172;2023-04-28T20:54:05;18.80;64.00
28297;DHT22;62078;49.366;8.172;2023-04-28T20:56:31;18.80;63.60
28297;DHT22;62078;49.366;8.172;2023-04-28T20:58:57;18.80;64.00
28297;DHT22;62078;49.366;8.172;2023-04-28T21:01:23;18.80;63.80
28297;DHT22;62078;49.366;8.172;2023-04-28T21:03:48;18.80;63.50
28297;DHT22;62078;49.366;8.172;2023-04-28T21:06:14;18.80;63.40
28297;DHT22;62078;49.366;8.172;2023-04-28T21:08:40;18.80;64.00
28297;DHT22;62078;49.366;8.172;2023-04-28T21:11:13;18.80;63.20
28297;DHT22;62078;49.366;8.172;2023-04-28T21:13:39;18.80;63.20
28297;DHT22;62078;49.366;8.172;2023-04-28T21:16:12;18.80;63.10
28297;DHT22;62078;49.366;8.172;2023-04-28T21:18:40;18.80;63.10
28297;DHT22;62078;49.366;8.172;2023-04-28T21:21:07;18.80;63.00
28297;DHT22;62078;49.366;8.172;2023-04-28T21:23:32;18.80;63.00
28297;DHT22;62078;49.366;8.172;2023-04-28T21:26:00;18.80;63.00
28297;DHT22;62078;49.366;8.172;2023-04-28T21:28:26;18.80;63.00
28297;DHT22;62078;49.366;8.172;2023-04-28T21:30:52;18.80;63.00
28297;DHT22;62078;49.366;8.172;2023-04-28T21:33:18;18.80;62.90
28297;DHT22;62078;49.366;8.172;2023-04-28T21:35:43;18.80;63.00
28297;DHT22;62078;49.366;8.172;2023-04-28T21:38:10;18.80;63.00
28297;DHT22;62078;49.366;8.172;2023-04-28T21:40:35;18.80;63.20
28297;DHT22;62078;49.366;8.172;2023-04-28T21:43:01;18.80;63.10
28297;DHT22;62078;49.366;8.172;2023-04-28T21:45:27;18.80;63.10
28297;DHT22;62078;49.366;8.172;2023-04-28T21:47:52;18.80;63.10
28297;DHT22;62078;49.366;8.172;2023-04-28T21:50:18;18.80;63.00
28297;DHT22;62078;49.366;8.172;2023-04-28T21:52:44;18.80;63.00
28297;DHT22;62078;49.366;8.172;2023-04-28T21:55:09;18.70;62.90
28297;DHT22;62078;49.366;8.172;2023-04-28T21:57:35;18.80;62.80
28297;DHT22;62078;49.366;8.172;2023-04-28T22:00:01;18.80;62.80
28297;DHT22;62078;49.366;8.172;2023-04-28T22:02:27;18.70;62.80
28297;DHT22;62078;49.366;8.172;2023-04-28T22:04:53;18.70;62.70
28297;DHT22;62078;49.366;8.172;2023-04-28T22:07:19;18.80;62.70
28297;DHT22;62078;49.366;8.172;2023-04-28T22:09:45;18.70;62.70
28297;DHT22;62078;49.366;8.172;2023-04-28T22:12:10;18.80;62.80
28297;DHT22;62078;49.366;8.172;2023-04-28T22:14:36;18.80;62.90
28297;DHT22;62078;49.366;8.172;2023-04-28T22:17:02;18.70;62.80
28297;DHT22;62078;49.366;8.172;2023-04-28T22:19:28;18.70;62.60
28297;DHT22;62078;49.366;8.172;2023-04-28T22:21:53;18.80;62.60
28297;DHT22;62078;49.366;8.172;2023-04-28T22:24:19;18.80;62.60
28297;DHT22;62078;49.366;8.172;2023-04-28T22:26:44;18.80;62.80
28297;DHT22;62078;49.366;8.172;2023-04-28T22:29:10;18.80;62.60
28297;DHT22;62078;49.366;8.172;2023-04-28T22:31:36;18.80;62.70
28297;DHT22;62078;49.366;8.172;2023-04-28T22:34:02;18.70;62.50
28297;DHT22;62078;49.366;8.172;2023-04-28T22:36:30;18.70;62.60
28297;DHT22;62078;49.366;8.172;2023-04-28T22:38:56;18.70;62.40
28297;DHT22;62078;49.366;8.172;2023-04-28T22:41:22;18.70;62.50
28297;DHT22;62078;49.366;8.172;2023-04-28T22:43:49;18.70;62.40
28297;DHT22;62078;49.366;8.172;2023-04-28T22:46:14;18.80;62.60
28297;DHT22;62078;49.366;8.172;2023-04-28T22:48:40;18.70;62.40
28297;DHT22;62078;49.366;8.172;2023-04-28T22:51:06;18.70;62.40
28297;DHT22;62078;49.366;8.172;2023-04-28T22:53:33;18.70;62.20
28297;DHT22;62078;49.366;8.172;2023-04-28T22:55:59;18.70;62.00
28297;DHT22;62078;49.366;8.172;2023-04-28T22:58:27;18.70;62.20
28297;DHT22;62078;49.366;8.172;2023-04-28T23:00:53;18.70;62.20
28297;DHT22;62078;49.366;8.172;2023-04-28T23:03:18;18.70;62.00
28297;DHT22;62078;49.366;8.172;2023-04-28T23:05:46;18.80;62.10
28297;DHT22;62078;49.366;8.172;2023-04-28T23:08:11;18.70;62.00
28297;DHT22;62078;49.366;8.172;2023-04-28T23:10:37;18.70;61.90
28297;DHT22;62078;49.366;8.172;2023-04-28T23:13:03;18.70;62.00
28297;DHT22;62078;49.366;8.172;2023-04-28T23:15:28;18.70;61.80
28297;DHT22;62078;49.366;8.172;2023-04-28T23:17:55;18.70;62.20
28297;DHT22;62078;49.366;8.172;2023-04-28T23:20:20;18.70;62.10
28297;DHT22;62078;49.366;8.172;2023-04-28T23:22:46;18.70;62.10
28297;DHT22;62078;49.366;8.172;2023-04-28T23:25:12;18.70;62.10
28297;DHT22;62078;49.366;8.172;2023-04-28T23:27:37;18.70;62.00
28297;DHT22;62078;49.366;8.172;2023-04-28T23:30:03;18.70;62.00
28297;DHT22;62078;49.366;8.172;2023-04-28T23:32:29;18.70;61.90
28297;DHT22;62078;49.366;8.172;2023-04-28T23:34:55;18.70;61.90
28297;DHT22;62078;49.366;8.172;2023-04-28T23:37:21;18.70;61.90
28297;DHT22;62078;49.366;8.172;2023-04-28T23:39:46;18.70;61.90
28297;DHT22;62078;49.366;8.172;2023-04-28T23:42:12;18.70;61.70
28297;DHT22;62078;49.366;8.172;2023-04-28T23:44:38;18.70;61.80
28297;DHT22;62078;49.366;8.172;2023-04-28T23:47:03;18.70;62.00
28297;DHT22;62078;49.366;8.172;2023-04-28T23:49:29;18.70;61.60
28297;DHT22;62078;49.366;8.172;2023-04-28T23:51:55;18.70;61.70
28297;DHT22;62078;49.366;8.172;2023-04-28T23:54:21;18.70;61.80
28297;DHT22;62078;49.366;8.172;2023-04-28T23:56:47;18.70;61.60
28297;DHT22;62078;49.366;8.172;2023-04-28T23:59:13;18.70;61.60
